Date,TemperatureHighF,TemperatureAvgF,TemperatureLowF,DewpointHighF,DewpointAvgF,DewpointLowF,HumidityHigh,HumidityAvg,HumidityLow,PressureMaxIn,PressureMinIn,WindSpeedMaxMPH,WindSpeedAvgMPH,GustSpeedMaxMPH,PrecipitationSumIn
2013-1-1,32,32,31,-100,-100,-100,0,0,100,0.00,40.00,0,-999,0,0.00
2013-1-2,32,32,32,-100,-100,-100,0,0,100,0.00,40.00,0,-999,0,0.00
2013-1-3,32,32,30,-100,-100,-100,0,0,100,0.00,40.00,0,-999,0,0.00
2013-1-4,32,30,27,-100,-100,-100,0,0,100,0.00,40.00,0,-999,0,0.00
2013-1-5,30,29,27,-100,-100,-100,0,0,100,0.00,40.00,0,-999,0,0.00
2013-1-6,28,27,25,-100,-100,-100,0,0,100,0.00,40.00,0,-999,0,0.00
2013-1-7,31,27,24,-100,-100,-100,0,0,100,0.00,40.00,0,-999,0,0.00
2013-1-8,33,31,26,-100,-100,-100,0,0,100,0.00,40.00,0,-999,0,0.00
2013-1-9,25,20,14,-100,-100,-100,0,0,100,0.00,40.00,0,-999,0,0.00
2013-1-10,16,13,10,-100,-100,-100,0,0,100,0.00,40.00,0,-999,0,0.00
2013-1-11,18,15,14,-100,-100,-100,0,0,100,0.00,40.00,0,-999,0,0.00
2013-1-12,21,18,16,-100,-100,-100,0,0,100,0.00,40.00,0,-999,0,0.00
2013-1-13,31,24,19,-100,-100,-100,0,0,100,0.00,40.00,0,-999,0,0.00
2013-1-14,35,33,32,-100,-100,-100,0,0,100,0.00,40.00,0,-999,0,0.00
2013-1-15,35,33,32,-100,-100,-100,0,0,100,0.00,40.00,0,-999,0,0.00
2013-1-16,33,32,32,-100,-100,-100,0,0,100,0.00,40.00,0,-999,0,0.00
2013-1-17,36,34,32,-100,-100,-100,0,0,100,0.00,40.00,0,-999,0,0.00
2013-1-18,36,33,31,-100,-100,-100,0,0,100,0.00,40.00,0,-999,0,0.00
2013-1-19,32,32,31,-100,-100,-100,0,0,100,0.00,40.00,0,-999,0,0.00
2013-1-20,32,30,28,-100,-100,-100,0,0,100,0.00,40.00,0,-999,0,0.00
2013-1-21,30,28,27,-100,-100,-100,0,0,100,0.00,40.00,0,-999,0,0.00
2013-1-22,32,30,28,-100,-100,-100,0,0,100,0.00,40.00,0,-999,0,0.00
2013-1-23,30,29,28,-100,-100,-100,0,0,100,0.00,40.00,0,-999,0,0.00
2013-1-24,29,28,27,-100,-100,-100,0,0,100,0.00,40.00,0,-999,0,0.00
2013-1-25,33,32,30,-100,-100,-100,0,0,100,0.00,40.00,0,-999,0,0.00
2013-1-26,32,32,32,-100,-100,-100,0,0,100,0.00,40.00,0,-999,0,0.00
2013-1-27,33,32,30,-100,-100,-100,0,0,100,0.00,40.00,0,-999,0,0.00
2013-1-28,31,24,11,-100,-100,-100,0,0,100,0.00,40.00,0,-999,0,0.00
2013-1-29,10,3,1,-100,-100,-100,0,0,100,0.00,40.00,0,-999,0,0.00
2013-1-30,12,8,3,-100,-100,-100,0,0,100,0.00,40.00,0,-999,0,0.00
2013-1-31,25,21,15,-100,-100,-100,0,0,100,0.00,40.00,0,-999,0,0.00
2013-2-1,32,30,25,-100,-100,-100,0,0,100,0.00,40.00,0,-999,0,0.00
2013-2-2,33,32,32,-100,-100,-100,0,0,100,0.00,40.00,0,-999,0,0.00
2013-2-3,33,32,32,-100,-100,-100,0,0,100,0.00,40.00,0,-999,0,0.00
2013-2-4,34,32,31,-100,-100,-100,0,0,100,0.00,40.00,0,-999,0,0.00
2013-2-5,34,31,29,-100,-100,-100,0,0,100,0.00,40.00,0,-999,0,0.00
2013-2-6,32,30,28,-100,-100,-100,0,0,100,0.00,40.00,0,-999,0,0.00
2013-2-7,31,28,25,-100,-100,-100,0,0,100,0.00,40.00,0,-999,0,0.00
2013-2-8,33,32,31,-100,-100,-100,0,0,100,0.00,40.00,0,-999,0,0.00
2013-2-9,35,33,32,-100,-100,-100,0,0,100,0.00,40.00,0,-999,0,0.00
2013-2-10,36,34,32,-100,-100,-100,0,0,100,0.00,40.00,0,-999,0,0.00
2013-2-11,34,33,32,-100,-100,-100,0,0,100,0.00,40.00,0,-999,0,0.00
2013-2-12,36,33,32,-100,-100,-100,0,0,100,0.00,40.00,0,-999,0,0.00
2013-2-13,37,32,31,-100,-100,-100,0,0,100,0.00,40.00,0,-999,0,0.00
2013-2-14,33,32,32,-100,-100,-100,0,0,100,0.00,40.00,0,-999,0,0.00
2013-2-15,35,33,32,-100,-100,-100,0,0,100,0.00,40.00,0,-999,0,0.00
2013-2-16,39,34,33,-100,-100,-100,0,0,100,0.00,40.00,0,-999,0,0.00
2013-2-17,34,32,32,-100,-100,-100,0,0,100,0.00,40.00,0,-999,0,0.00
2013-2-18,36,33,32,-100,-100,-100,0,0,100,0.00,40.00,0,-999,0,0.00
2013-2-19,34,32,31,-100,-100,-100,0,0,100,0.00,40.00,0,-999,0,0.00
2013-2-20,33,32,32,-100,-100,-100,0,0,100,0.00,40.00,0,-999,0,0.00
2013-2-21,35,32,32,-100,-100,-100,0,0,100,0.00,40.00,0,-999,0,0.00
2013-2-22,36,33,32,-100,-100,-100,0,0,100,0.00,40.00,0,-999,0,0.00
2013-2-23,34,32,32,-100,-100,-100,0,0,100,0.00,40.00,0,-999,0,0.00
2013-2-24,35,32,29,-100,-100,-100,0,0,100,0.00,40.00,0,-999,0,0.00
2013-2-25,40,31,28,-100,-100,-100,0,0,100,0.00,40.00,0,-999,0,0.00
2013-2-26,29,28,28,-100,-100,-100,0,0,100,0.00,40.00,0,-999,0,0.00
2013-2-27,33,31,28,-100,-100,-100,0,0,100,0.00,40.00,0,-999,0,0.00
2013-2-28,33,32,32,-100,-100,-100,0,0,100,0.00,40.00,0,-999,0,0.00
2013-3-1,37,34,32,-100,-100,-100,0,0,100,0.00,40.00,0,-999,0,0.00
2013-3-2,36,33,28,-100,-100,-100,0,0,100,0.00,40.00,0,-999,0,0.00
2013-3-3,39,32,28,-100,-100,-100,0,0,100,0.00,40.00,0,-999,0,0.00
2013-3-4,40,31,27,-100,-100,-100,0,0,100,0.00,40.00,0,-999,0,0.00
2013-3-5,37,29,25,-100,-100,-100,0,0,100,0.00,40.00,0,-999,0,0.00
2013-3-6,35,26,20,-100,-100,-100,0,0,100,0.00,40.00,0,-999,0,0.00
2013-3-7,36,26,21,-100,-100,-100,0,0,100,0.00,40.00,0,-999,0,0.00
2013-3-8,35,26,18,-100,-100,-100,0,0,100,0.00,40.00,0,-999,0,0.00
2013-3-9,33,32,30,-100,-100,-100,0,0,100,0.00,40.00,0,-999,0,0.00
2013-3-10,36,33,32,-100,-100,-100,0,0,100,0.00,40.00,0,-999,0,0.00
2013-3-11,36,33,32,-100,-100,-100,0,0,100,0.00,40.00,0,-999,0,0.00
2013-3-12,41,34,30,-100,-100,-100,0,0,100,0.00,40.00,0,-999,0,0.00
2013-3-13,32,27,23,-100,-100,-100,0,0,100,0.00,40.00,0,-999,0,0.00
2013-3-14,30,26,22,-100,-100,-100,0,0,100,0.00,40.00,0,-999,0,0.00
2013-3-15,27,22,19,-100,-100,-100,0,0,100,0.00,40.00,0,-999,0,0.00
2013-3-16,30,22,17,-100,-100,-100,0,0,100,0.00,40.00,0,-999,0,0.00
2013-3-17,29,23,18,-100,-100,-100,0,0,100,0.00,40.00,0,-999,0,0.00
2013-3-18,29,25,22,-100,-100,-100,0,0,100,0.00,40.00,0,-999,0,0.00
2013-3-19,34,29,22,-100,-100,-100,0,0,100,0.00,40.00,0,-999,0,0.00
2013-3-20,37,26,19,-100,-100,-100,0,0,100,0.00,40.00,0,-999,0,0.00
2013-3-21,27,21,17,-100,-100,-100,0,0,100,0.00,40.00,0,-999,0,0.00
2013-3-22,34,20,9,-100,-100,-100,0,0,100,0.00,40.00,0,-999,0,0.00
2013-3-23,38,26,18,-100,-100,-100,0,0,100,0.00,40.00,0,-999,0,0.00
2013-3-24,36,32,29,-100,-100,-100,0,0,100,0.00,40.00,0,-999,0,0.00
2013-3-25,36,34,32,-100,-100,-100,0,0,100,0.00,40.00,0,-999,0,0.00
2013-3-26,39,34,31,-100,-100,-100,0,0,100,0.00,40.00,0,-999,0,0.00
2013-3-27,40,32,24,-100,-100,-100,0,0,100,0.00,40.00,0,-999,0,0.00
2013-3-28,41,31,23,-100,-100,-100,0,0,100,0.00,40.00,0,-999,0,0.00
2013-3-29,44,33,25,-100,-100,-100,0,0,100,0.00,40.00,0,-999,0,0.00
2013-3-30,38,35,33,-100,-100,-100,0,0,100,0.00,40.00,0,-999,0,0.00
2013-3-31,42,36,33,-100,-100,-100,0,0,100,0.00,40.00,0,-999,0,0.00
2013-4-1,38,35,32,-100,-100,-100,0,0,100,0.00,40.00,0,-999,0,0.00
2013-4-2,41,35,32,-100,-100,-100,0,0,100,0.00,40.00,0,-999,0,0.00
2013-4-3,40,34,29,-100,-100,-100,0,0,100,0.00,40.00,0,-999,0,0.00
2013-4-4,48,36,29,-100,-100,-100,0,0,100,0.00,40.00,0,-999,0,0.00
2013-4-5,36,32,29,-100,-100,-100,0,0,100,0.00,40.00,0,-999,0,0.00
2013-4-6,36,32,29,-100,-100,-100,0,0,100,0.00,40.00,0,-999,0,0.00
2013-4-7,47,36,30,-100,-100,-100,0,0,100,0.00,40.00,0,-999,0,0.00
2013-4-8,43,36,30,-100,-100,-100,0,0,100,0.00,40.00,0,-999,0,0.00
2013-4-9,39,36,34,-100,-100,-100,0,0,100,0.00,40.00,0,-999,0,0.00
2013-4-10,39,35,32,-100,-100,-100,0,0,100,0.00,40.00,0,-999,0,0.00
2013-4-11,39,34,32,-100,-100,-100,0,0,100,0.00,40.00,0,-999,0,0.00
2013-4-12,42,35,32,-100,-100,-100,0,0,100,0.00,40.00,0,-999,0,0.00
2013-4-13,51,37,28,-100,-100,-100,0,0,100,0.00,40.00,0,-999,0,0.00
2013-4-14,52,38,30,-100,-100,-100,0,0,100,0.00,40.00,0,-999,0,0.00
2013-4-15,51,38,29,-100,-100,-100,0,0,100,0.00,40.00,0,-999,0,0.00
2013-4-16,44,36,32,-100,-100,-100,0,0,100,0.00,40.00,0,-999,0,0.00
2013-4-17,41,36,33,-100,-100,-100,0,0,100,0.00,40.00,0,-999,0,0.00
2013-4-18,41,37,34,-100,-100,-100,0,0,100,0.00,40.00,0,-999,0,0.00
2013-4-19,46,37,32,-100,-100,-100,0,0,100,0.00,40.00,0,-999,0,0.00
2013-4-20,48,36,27,-100,-100,-100,0,0,100,0.00,40.00,0,-999,0,0.00
2013-4-21,50,36,28,-100,-100,-100,0,0,100,0.00,40.00,0,-999,0,0.00
2013-4-22,43,35,27,-100,-100,-100,0,0,100,0.00,40.00,0,-999,0,0.00
2013-4-23,51,38,31,-100,-100,-100,0,0,100,0.00,40.00,0,-999,0,0.00
2013-4-24,40,38,35,-100,-100,-100,0,0,100,0.00,40.00,0,-999,0,0.00
2013-4-25,39,37,35,-100,-100,-100,0,0,100,0.00,40.00,0,-999,0,0.00
2013-4-26,37,35,32,-100,-100,-100,0,0,100,0.00,40.00,0,-999,0,0.00
2013-4-27,39,35,32,-100,-100,-100,0,0,100,0.00,40.00,0,-999,0,0.00
2013-4-28,38,34,32,-100,-100,-100,0,0,100,0.00,40.00,0,-999,0,0.00
2013-4-29,45,36,31,-100,-100,-100,0,0,100,0.00,40.00,0,-999,0,0.00
2013-4-30,44,35,28,-100,-100,-100,0,0,100,0.00,40.00,0,-999,0,0.00
2013-5-1,36,34,32,-100,-100,-100,0,0,100,0.00,40.00,0,-999,0,0.00
2013-5-2,40,38,35,-100,-100,-100,0,0,100,0.00,40.00,0,-999,0,0.00
2013-5-3,54,42,36,-100,-100,-100,0,0,100,0.00,40.00,0,-999,0,0.00
2013-5-4,45,39,36,-100,-100,-100,0,0,100,0.00,40.00,0,-999,0,0.00
2013-5-5,56,43,35,-100,-100,-100,0,0,100,0.00,40.00,0,-999,0,0.00
2013-5-6,49,42,37,-100,-100,-100,0,0,100,0.00,40.00,0,-999,0,0.00
2013-5-7,57,42,32,-100,-100,-100,0,0,100,0.00,40.00,0,-999,0,0.00
2013-5-8,60,44,33,-100,-100,-100,0,0,100,0.00,40.00,0,-999,0,0.00
2013-5-9,58,44,35,-100,-100,-100,0,0,100,0.00,40.00,0,-999,0,0.00
2013-5-10,60,46,37,-100,-100,-100,0,0,100,0.00,40.00,0,-999,0,0.00
2013-5-11,43,40,38,-100,-100,-100,0,0,100,0.00,40.00,0,-999,0,0.00
2013-5-12,47,41,38,-100,-100,-100,0,0,100,0.00,40.00,0,-999,0,0.00
2013-5-13,48,42,38,-100,-100,-100,0,0,100,0.00,40.00,0,-999,0,0.00
2013-5-14,46,41,37,-100,-100,-100,0,0,100,0.00,40.00,0,-999,0,0.00
2013-5-15,50,42,36,-100,-100,-100,0,0,100,0.00,40.00,0,-999,0,0.00
2013-5-16,56,44,37,-100,-100,-100,0,0,100,0.00,40.00,0,-999,0,0.00
2013-5-17,49,43,38,-100,-100,-100,0,0,100,0.00,40.00,0,-999,0,0.00
2013-5-18,45,41,38,-100,-100,-100,0,0,100,0.00,40.00,0,-999,0,0.00
2013-5-19,49,40,35,-100,-100,-100,0,0,100,0.00,40.00,0,-999,0,0.00
2013-5-20,52,42,35,-100,-100,-100,0,0,100,0.00,40.00,0,-999,0,0.00
2013-5-21,65,50,35,-100,-100,-100,0,0,100,0.00,40.00,0,-999,0,0.00
2013-5-22,65,53,44,-100,-100,-100,0,0,100,0.00,40.00,0,-999,0,0.00
2013-5-23,69,50,36,-100,-100,-100,0,0,100,0.00,40.00,0,-999,0,0.00
2013-5-24,61,48,41,-100,-100,-100,0,0,100,0.00,40.00,0,-999,0,0.00
2013-5-25,64,51,42,-100,-100,-100,0,0,100,0.00,40.00,0,-999,0,0.00
2013-5-26,65,51,44,-100,-100,-100,0,0,100,0.00,40.00,0,-999,0,0.00
2013-5-27,70,53,43,-100,-100,-100,0,0,100,0.00,40.00,0,-999,0,0.00
2013-5-28,76,56,43,-100,-100,-100,0,0,100,0.00,40.00,0,-999,0,0.00
2013-5-29,52,49,45,-100,-100,-100,0,0,100,0.00,40.00,0,-999,0,0.00
2013-5-30,63,50,41,-100,-100,-100,0,0,100,0.00,40.00,0,-999,0,0.00
2013-5-31,50,48,45,-100,-100,-100,0,0,100,0.00,40.00,0,-999,0,0.00
2013-6-1,53,47,43,-100,-100,-100,0,0,100,0.00,40.00,0,-999,0,0.00
2013-6-2,62,51,43,-100,-100,-100,0,0,100,0.00,40.00,0,-999,0,0.00
2013-6-3,58,50,40,-100,-100,-100,0,0,100,0.00,40.00,0,-999,0,0.00
2013-6-4,51,48,45,-100,-100,-100,0,0,100,0.00,40.00,0,-999,0,0.00
2013-6-5,52,46,43,-100,-100,-100,0,0,100,0.00,40.00,0,-999,0,0.00
2013-6-6,50,45,41,-100,-100,-100,0,0,100,0.00,40.00,0,-999,0,0.00
2013-6-7,59,49,43,-100,-100,-100,0,0,100,0.00,40.00,0,-999,0,0.00
2013-6-8,59,51,45,-100,-100,-100,0,0,100,0.00,40.00,0,-999,0,0.00
2013-6-9,64,52,43,-100,-100,-100,0,0,100,0.00,40.00,0,-999,0,0.00
2013-6-10,73,56,43,-100,-100,-100,0,0,100,0.00,40.00,0,-999,0,0.00
2013-6-11,73,60,49,-100,-100,-100,0,0,100,0.00,40.00,0,-999,0,0.00
2013-6-12,76,62,49,-100,-100,-100,0,0,100,0.00,40.00,0,-999,0,0.00
2013-6-13,65,56,52,-100,-100,-100,0,0,100,0.00,40.00,0,-999,0,0.00
2013-6-14,67,58,50,-100,-100,-100,0,0,100,0.00,40.00,0,-999,0,0.00
2013-6-15,79,63,48,-100,-100,-100,0,0,100,0.00,40.00,0,-999,0,0.00
2013-6-16,78,62,52,-100,-100,-100,0,0,100,0.00,40.00,0,-999,0,0.00
2013-6-17,68,59,51,-100,-100,-100,0,0,100,0.00,40.00,0,-999,0,0.00
2013-6-18,72,61,52,-100,-100,-100,0,0,100,0.00,40.00,0,-999,0,0.00
2013-6-19,71,61,51,-100,-100,-100,0,0,100,0.00,40.00,0,-999,0,0.00
2013-6-20,64,58,53,-100,-100,-100,0,0,100,0.00,40.00,0,-999,0,0.00
2013-6-22,68,62,55,-100,-100,-100,0,0,100,0.00,40.00,0,-999,0,0.00
2013-6-23,72,62,54,-100,-100,-100,0,0,100,0.00,40.00,0,-999,0,0.00
2013-6-24,81,63,53,-100,-100,-100,0,0,100,0.00,40.00,0,-999,0,0.00
2013-6-25,64,60,56,-100,-100,-100,0,0,100,0.00,40.00,0,-999,0,0.00
2013-6-26,62,57,52,-100,-100,-100,0,0,100,0.00,40.00,0,-999,0,0.00
2013-6-27,69,60,53,-100,-100,-100,0,0,100,0.00,40.00,0,-999,0,0.00
2013-6-28,69,60,51,-100,-100,-100,0,0,100,0.00,40.00,0,-999,0,0.00
2013-6-29,64,57,52,-100,-100,-100,0,0,100,0.00,40.00,0,-999,0,0.00
2013-6-30,65,59,53,-100,-100,-100,0,0,100,0.00,40.00,0,-999,0,0.00
2013-7-1,67,57,52,-100,-100,-100,0,0,100,0.00,40.00,0,-999,0,0.00
2013-7-2,61,56,51,-100,-100,-100,0,0,100,0.00,40.00,0,-999,0,0.00
2013-7-3,57,53,51,-100,-100,-100,0,0,100,0.00,40.00,0,-999,0,0.00
2013-7-4,61,55,50,-100,-100,-100,0,0,100,0.00,40.00,0,-999,0,0.00
2013-7-5,68,57,47,-100,-100,-100,0,0,100,0.00,40.00,0,-999,0,0.00
2013-7-6,62,56,49,-100,-100,-100,0,0,100,0.00,40.00,0,-999,0,0.00
2013-7-7,70,58,51,-100,-100,-100,0,0,100,0.00,40.00,0,-999,0,0.00
2013-7-8,58,55,52,-100,-100,-100,0,0,100,0.00,40.00,0,-999,0,0.00
2013-7-9,55,52,49,-100,-100,-100,0,0,100,0.00,40.00,0,-999,0,0.00
2013-7-10,61,52,47,-100,-100,-100,0,0,100,0.00,40.00,0,-999,0,0.00
2013-7-11,55,51,47,-100,-100,-100,0,0,100,0.00,40.00,0,-999,0,0.00
2013-7-12,56,53,51,-100,-100,-100,0,0,100,0.00,40.00,0,-999,0,0.00
2013-7-13,54,51,47,-100,-100,-100,0,0,100,0.00,40.00,0,-999,0,0.00
2013-7-14,66,53,46,-100,-100,-100,0,0,100,0.00,40.00,0,-999,0,0.00
2013-7-15,74,57,46,-100,-100,-100,0,0,100,0.00,40.00,0,-999,0,0.00
2013-7-16,74,57,47,-100,-100,-100,0,0,100,0.00,40.00,0,-999,0,0.00
2013-7-17,78,67,52,-100,-100,-100,0,0,100,0.00,40.00,0,-999,0,0.00
2013-7-18,62,59,56,-100,-100,-100,0,0,100,0.00,40.00,0,-999,0,0.00
2013-7-19,62,59,55,-100,-100,-100,0,0,100,0.00,40.00,0,-999,0,0.00
2013-7-20,63,57,54,-100,-100,-100,0,0,100,0.00,40.00,0,-999,0,0.00
2013-7-21,58,55,52,-100,-100,-100,0,0,100,0.00,40.00,0,-999,0,0.00
2013-7-22,63,56,51,-100,-100,-100,0,0,100,0.00,40.00,0,-999,0,0.00
2013-7-23,60,56,52,-100,-100,-100,0,0,100,0.00,40.00,0,-999,0,0.00
2013-7-24,61,57,52,-100,-100,-100,0,0,100,0.00,40.00,0,-999,0,0.00
2013-7-25,61,56,52,-100,-100,-100,0,0,100,0.00,40.00,0,-999,0,0.00
2013-7-26,63,57,52,-100,-100,-100,0,0,100,0.00,40.00,0,-999,0,0.00
2013-7-27,68,61,52,-100,-100,-100,0,0,100,0.00,40.00,0,-999,0,0.00
2013-7-28,72,60,48,-100,-100,-100,0,0,100,0.00,40.00,0,-999,0,0.00
2013-7-29,73,60,51,-100,-100,-100,0,0,100,0.00,40.00,0,-999,0,0.00
2013-7-30,82,65,56,-100,-100,-100,0,0,100,0.00,40.00,0,-999,0,0.00
2013-7-31,81,67,54,-100,-100,-100,0,0,100,0.00,40.00,0,-999,0,0.00
2013-8-1,76,62,52,-100,-100,-100,0,0,100,0.00,40.00,0,-999,0,0.00
2013-8-2,75,60,53,-100,-100,-100,0,0,100,0.00,40.00,0,-999,0,0.00
2013-8-3,69,61,56,-100,-100,-100,0,0,100,0.00,40.00,0,-999,0,0.00
2013-8-4,69,60,54,-100,-100,-100,0,0,100,0.00,40.00,0,-999,0,0.00
2013-8-5,69,62,58,-100,-100,-100,0,0,100,0.00,40.00,0,-999,0,0.00
2013-8-6,71,59,56,-100,-100,-100,0,0,100,0.00,40.00,0,-999,0,0.00
2013-8-7,72,61,49,-100,-100,-100,0,0,100,0.00,40.00,0,-999,0,0.00
2013-8-8,60,58,57,-100,-100,-100,0,0,100,0.00,40.00,0,-999,0,0.00
2013-8-9,68,61,53,-100,-100,-100,0,0,100,0.00,40.00,0,-999,0,0.00
2013-8-10,69,59,49,-100,-100,-100,0,0,100,0.00,40.00,0,-999,0,0.00
2013-8-11,75,61,49,-100,-100,-100,0,0,100,0.00,40.00,0,-999,0,0.00